Time,TemperatureF,DewpointF,PressureIn,WindDirection,WindDirectionDegrees,WindSpeedMPH,WindSpeedGustMPH,Humidity,HourlyPrecipIn,Conditions,Clouds,dailyrainin,SoftwareType,DateUTC
2013-01-08 00:13:00,42.7,32.0,30.34,East,88,1.0,2.0,67,0.00,,,0.00,weatherlink.com 1.10,2013-01-08 05:13:00,
2013-01-08 00:27:00,42.7,33.0,30.34,ENE,78,1.0,2.0,68,0.00,,,0.00,weatherlink.com 1.10,2013-01-08 05:27:00,
2013-01-08 00:42:00,42.3,33.0,30.34,East,83,0.0,1.0,69,0.00,,,0.00,weatherlink.com 1.10,2013-01-08 05:42:00,
2013-01-08 00:57:00,41.4,33.0,30.34,East,81,1.0,1.0,73,0.00,,,0.00,weatherlink.com 1.10,2013-01-08 05:57:00,
2013-01-08 01:12:00,41.2,33.0,30.34,East,84,0.0,1.0,73,0.00,,,0.00,weatherlink.com 1.10,2013-01-08 06:12:00,
2013-01-08 01:27:00,41.2,34.0,30.34,East,87,0.0,2.0,74,0.00,,,0.00,weatherlink.com 1.10,2013-01-08 06:27:00,
2013-01-08 01:42:00,41.2,34.0,30.34,ENE,72,5.0,5.0,74,0.00,,,0.00,weatherlink.com 1.10,2013-01-08 06:42:00,
2013-01-08 01:57:00,41.9,33.0,30.33,East,82,1.0,3.0,72,0.00,,,0.00,weatherlink.com 1.10,2013-01-08 06:57:00,
2013-01-08 02:12:00,41.1,33.0,30.34,East,84,1.0,1.0,74,0.00,,,0.00,weatherlink.com 1.10,2013-01-08 07:12:00,
2013-01-08 02:27:00,40.9,34.0,30.33,ESE,107,0.0,1.0,75,0.00,,,0.00,weatherlink.com 1.10,2013-01-08 07:27:00,
2013-01-08 02:43:00,40.9,34.0,30.32,East,79,0.0,0.0,75,0.00,,,0.00,weatherlink.com 1.10,2013-01-08 07:43:00,
2013-01-08 02:58:00,40.9,34.0,30.32,ENE,72,0.0,2.0,75,0.00,,,0.00,weatherlink.com 1.10,2013-01-08 07:58:00,
2013-01-08 03:13:00,40.7,34.0,30.32,East,89,0.0,1.0,76,0.00,,,0.00,weatherlink.com 1.10,2013-01-08 08:13:00,
2013-01-08 03:28:00,40.7,33.0,30.33,East,84,0.0,2.0,75,0.00,,,0.00,weatherlink.com 1.10,2013-01-08 08:28:00,
2013-01-08 03:43:00,40.7,33.0,30.33,East,82,0.0,2.0,75,0.00,,,0.00,weatherlink.com 1.10,2013-01-08 08:43:00,
2013-01-08 03:58:00,40.2,33.0,30.33,East,82,0.0,1.0,76,0.00,,,0.00,weatherlink.com 1.10,2013-01-08 08:58:00,
2013-01-08 04:13:00,40.1,33.0,30.32,NNE,15,0.0,0.0,77,0.00,,,0.00,weatherlink.com 1.10,2013-01-08 09:13:00,
2013-01-08 04:28:00,40.5,34.0,30.32,ENE,71,0.0,1.0,76,0.00,,,0.00,weatherlink.com 1.10,2013-01-08 09:28:00,
2013-01-08 04:43:00,40.4,33.0,30.32,East,88,0.0,0.0,75,0.00,,,0.00,weatherlink.com 1.10,2013-01-08 09:43:00,
2013-01-08 04:58:00,40.3,33.0,30.32,ENE,75,0.0,0.0,76,0.00,,,0.00,weatherlink.com 1.10,2013-01-08 09:58:00,
2013-01-08 05:13:00,40.2,34.0,30.31,ENE,73,0.0,0.0,77,0.00,,,0.00,weatherlink.com 1.10,2013-01-08 10:13:00,
2013-01-08 05:28:00,40.3,34.0,30.32,ENE,74,0.0,0.0,77,0.00,,,0.00,weatherlink.com 1.10,2013-01-08 10:28:00,
2013-01-08 05:43:00,40.6,34.0,30.32,ENE,74,0.0,0.0,76,0.00,,,0.00,weatherlink.com 1.10,2013-01-08 10:43:00,
2013-01-08 05:58:00,41.1,34.0,30.33,ENE,74,0.0,0.0,75,0.00,,,0.00,weatherlink.com 1.10,2013-01-08 10:58:00,
2013-01-08 06:13:00,41.7,34.0,30.33,East,94,1.0,2.0,74,0.00,,,0.00,weatherlink.com 1.10,2013-01-08 11:13:00,
2013-01-08 06:28:00,42.1,33.0,30.33,East,91,1.0,3.0,71,0.00,,,0.00,weatherlink.com 1.10,2013-01-08 11:28:00,
2013-01-08 06:43:00,42.3,34.0,30.33,ENE,72,1.0,3.0,71,0.00,,,0.00,weatherlink.com 1.10,2013-01-08 11:43:00,
2013-01-08 06:58:00,42.4,34.0,30.34,East,95,1.0,3.0,71,0.00,,,0.00,weatherlink.com 1.10,2013-01-08 11:58:00,
2013-01-08 07:13:00,42.6,33.0,30.34,ENE,65,3.0,4.0,70,0.00,,,0.00,weatherlink.com 1.10,2013-01-08 12:13:00,
2013-01-08 07:28:00,42.6,34.0,30.34,ENE,60,4.0,4.0,71,0.00,,,0.00,weatherlink.com 1.10,2013-01-08 12:28:00,
2013-01-08 07:43:00,42.7,34.0,30.34,ENE,60,3.0,4.0,70,0.00,,,0.00,weatherlink.com 1.10,2013-01-08 12:43:00,
2013-01-08 07:58:00,42.9,34.0,30.35,East,85,2.0,3.0,70,0.00,,,0.00,weatherlink.com 1.10,2013-01-08 12:58:00,
2013-01-08 08:13:00,43.1,34.0,30.37,ENE,68,0.0,3.0,70,0.00,,,0.00,weatherlink.com 1.10,2013-01-08 13:13:00,
2013-01-08 08:28:00,43.3,34.0,30.38,East,100,1.0,3.0,70,0.00,,,0.00,weatherlink.com 1.10,2013-01-08 13:28:00,
2013-01-08 08:43:00,43.6,35.0,30.39,ENE,72,0.0,5.0,71,0.00,,,0.00,weatherlink.com 1.10,2013-01-08 13:43:00,
2013-01-08 08:58:00,43.8,35.0,30.40,East,91,1.0,3.0,70,0.00,,,0.00,weatherlink.com 1.10,2013-01-08 13:58:00,
2013-01-08 09:13:00,44.0,34.0,30.40,ENE,66,1.0,3.0,69,0.00,,,0.00,weatherlink.com 1.10,2013-01-08 14:13:00,
2013-01-08 09:28:00,44.5,35.0,30.40,ENE,78,2.0,2.0,70,0.00,,,0.00,weatherlink.com 1.10,2013-01-08 14:28:00,
2013-01-08 09:43:00,44.9,35.0,30.40,ESE,117,2.0,4.0,68,0.00,,,0.00,weatherlink.com 1.10,2013-01-08 14:43:00,
2013-01-08 09:58:00,45.2,35.0,30.41,East,79,0.0,4.0,67,0.00,,,0.00,weatherlink.com 1.10,2013-01-08 14:58:00,
2013-01-08 10:13:00,45.6,36.0,30.41,ENE,77,2.0,3.0,69,0.00,,,0.00,weatherlink.com 1.10,2013-01-08 15:13:00,
2013-01-08 10:28:00,46.2,36.0,30.41,East,88,1.0,3.0,67,0.00,,,0.00,weatherlink.com 1.10,2013-01-08 15:28:00,
2013-01-08 10:43:00,46.6,36.0,30.42,East,84,3.0,3.0,67,0.00,,,0.00,weatherlink.com 1.10,2013-01-08 15:43:00,
2013-01-08 10:58:00,46.9,36.0,30.41,SSE,158,1.0,4.0,66,0.00,,,0.00,weatherlink.com 1.10,2013-01-08 15:58:00,
2013-01-08 11:13:00,46.9,36.0,30.40,ESE,105,2.0,4.0,65,0.00,,,0.00,weatherlink.com 1.10,2013-01-08 16:13:00,
2013-01-08 11:28:00,47.3,36.0,30.39,ESE,110,1.0,4.0,65,0.00,,,0.00,weatherlink.com 1.10,2013-01-08 16:28:00,
2013-01-08 11:43:00,47.5,36.0,30.39,ENE,75,3.0,6.0,65,0.00,,,0.00,weatherlink.com 1.10,2013-01-08 16:43:00,
2013-01-08 11:58:00,47.6,36.0,30.38,ENE,67,2.0,5.0,65,0.00,,,0.00,weatherlink.com 1.10,2013-01-08 16:58:00,
2013-01-08 12:13:00,48.0,36.0,30.38,ESE,103,1.0,4.0,64,0.00,,,0.00,weatherlink.com 1.10,2013-01-08 17:13:00,
2013-01-08 12:28:00,48.3,37.0,30.37,East,82,2.0,3.0,65,0.00,,,0.00,weatherlink.com 1.10,2013-01-08 17:28:00,
2013-01-08 12:44:00,48.4,37.0,30.36,ENE,77,0.0,2.0,65,0.00,,,0.00,weatherlink.com 1.10,2013-01-08 17:44:00,
2013-01-08 12:59:00,48.9,38.0,30.35,ESE,117,0.0,3.0,66,0.00,,,0.00,weatherlink.com 1.10,2013-01-08 17:59:00,
2013-01-08 13:14:00,49.0,38.0,30.34,ENE,74,2.0,5.0,67,0.00,,,0.00,weatherlink.com 1.10,2013-01-08 18:14:00,
2013-01-08 13:29:00,49.2,39.0,30.34,ESE,108,1.0,3.0,69,0.00,,,0.00,weatherlink.com 1.10,2013-01-08 18:29:00,
2013-01-08 13:44:00,49.7,39.0,30.33,ENE,65,0.0,3.0,67,0.00,,,0.00,weatherlink.com 1.10,2013-01-08 18:44:00,
2013-01-08 13:59:00,50.1,40.0,30.33,East,79,0.0,2.0,68,0.00,,,0.00,weatherlink.com 1.10,2013-01-08 18:59:00,
2013-01-08 14:14:00,50.3,40.0,30.33,ENE,69,1.0,2.0,67,0.00,,,0.00,weatherlink.com 1.10,2013-01-08 19:14:00,
2013-01-08 14:29:00,50.4,40.0,30.33,East,89,0.0,2.0,68,0.00,,,0.00,weatherlink.com 1.10,2013-01-08 19:29:00,
2013-01-08 14:44:00,50.6,40.0,30.32,ENE,77,1.0,2.0,68,0.00,,,0.00,weatherlink.com 1.10,2013-01-08 19:44:00,
2013-01-08 14:59:00,51.0,40.0,30.32,ENE,70,2.0,3.0,67,0.00,,,0.00,weatherlink.com 1.10,2013-01-08 19:59:00,
2013-01-08 15:14:00,51.2,41.0,30.31,East,79,0.0,4.0,67,0.00,,,0.00,weatherlink.com 1.10,2013-01-08 20:14:00,
2013-01-08 15:29:00,51.3,41.0,30.31,ENE,68,2.0,3.0,68,0.00,,,0.00,weatherlink.com 1.10,2013-01-08 20:29:00,
2013-01-08 15:44:00,51.6,41.0,30.32,East,84,1.0,3.0,68,0.00,,,0.00,weatherlink.com 1.10,2013-01-08 20:44:00,
2013-01-08 15:59:00,51.5,41.0,30.32,NE,44,2.0,2.0,68,0.00,,,0.00,weatherlink.com 1.10,2013-01-08 20:59:00,
2013-01-08 16:14:00,51.4,42.0,30.32,East,85,0.0,2.0,69,0.00,,,0.00,weatherlink.com 1.10,2013-01-08 21:14:00,
2013-01-08 16:29:00,51.7,42.0,30.31,SE,145,2.0,2.0,70,0.00,,,0.00,weatherlink.com 1.10,2013-01-08 21:29:00,
2013-01-08 16:44:00,51.5,42.0,30.32,East,96,0.0,3.0,70,0.00,,,0.00,weatherlink.com 1.10,2013-01-08 21:44:00,
2013-01-08 16:59:00,51.4,42.0,30.32,SE,128,0.0,0.0,69,0.00,,,0.00,weatherlink.com 1.10,2013-01-08 21:59:00,
2013-01-08 17:14:00,51.4,42.0,30.31,East,94,0.0,0.0,70,0.00,,,0.00,weatherlink.com 1.10,2013-01-08 22:14:00,
2013-01-08 17:29:00,51.3,42.0,30.32,North,360,0.0,0.0,71,0.00,,,0.00,weatherlink.com 1.10,2013-01-08 22:29:00,
2013-01-08 17:44:00,51.1,42.0,30.32,ESE,110,0.0,0.0,71,0.00,,,0.00,weatherlink.com 1.10,2013-01-08 22:44:00,
2013-01-08 17:59:00,50.8,42.0,30.32,East,82,0.0,0.0,71,0.00,,,0.00,weatherlink.com 1.10,2013-01-08 22:59:00,
2013-01-08 18:14:00,50.6,41.0,30.33,East,79,0.0,0.0,71,0.00,,,0.00,weatherlink.com 1.10,2013-01-08 23:14:00,
2013-01-08 18:29:00,50.5,41.0,30.34,East,94,0.0,0.0,71,0.00,,,0.00,weatherlink.com 1.10,2013-01-08 23:29:00,
2013-01-08 18:44:00,50.4,42.0,30.33,East,93,0.0,0.0,72,0.00,,,0.00,weatherlink.com 1.10,2013-01-08 23:44:00,
2013-01-08 18:59:00,50.3,42.0,30.34,NE,56,0.0,0.0,72,0.00,,,0.00,weatherlink.com 1.10,2013-01-08 23:59:00,
2013-01-08 19:14:00,50.1,42.0,30.34,ENE,69,0.0,0.0,73,0.00,,,0.00,weatherlink.com 1.10,2013-01-09 00:14:00,
2013-01-08 19:29:00,49.9,42.0,30.34,ENE,78,0.0,0.0,74,0.00,,,0.00,weatherlink.com 1.10,2013-01-09 00:29:00,
2013-01-08 19:44:00,49.8,43.0,30.34,East,84,0.0,0.0,77,0.00,,,0.00,weatherlink.com 1.10,2013-01-09 00:44:00,
2013-01-08 19:59:00,49.5,44.0,30.34,East,87,1.0,4.0,80,0.00,,,0.00,weatherlink.com 1.10,2013-01-09 00:59:00,
2013-01-08 20:14:00,49.3,44.0,30.34,East,91,0.0,2.0,81,0.00,,,0.00,weatherlink.com 1.10,2013-01-09 01:14:00,
2013-01-08 20:29:00,49.2,43.0,30.35,East,79,2.0,3.0,80,0.00,,,0.00,weatherlink.com 1.10,2013-01-09 01:29:00,
2013-01-08 20:44:00,49.1,43.0,30.35,ESE,108,0.0,3.0,78,0.00,,,0.00,weatherlink.com 1.10,2013-01-09 01:44:00,
2013-01-08 20:59:00,49.1,42.0,30.35,ESE,105,2.0,3.0,77,0.00,,,0.00,weatherlink.com 1.10,2013-01-09 01:59:00,
2013-01-08 21:14:00,49.2,42.0,30.35,ESE,120,2.0,3.0,76,0.00,,,0.00,weatherlink.com 1.10,2013-01-09 02:14:00,
2013-01-08 21:29:00,49.2,42.0,30.35,East,87,1.0,2.0,75,0.00,,,0.00,weatherlink.com 1.10,2013-01-09 02:29:00,
2013-01-08 21:44:00,49.2,42.0,30.35,East,94,0.0,2.0,75,0.00,,,0.00,weatherlink.com 1.10,2013-01-09 02:44:00,
2013-01-08 21:59:00,49.2,42.0,30.34,ENE,75,1.0,3.0,75,0.00,,,0.00,weatherlink.com 1.10,2013-01-09 02:59:00,
2013-01-08 22:15:00,49.1,42.0,30.34,East,84,1.0,3.0,75,0.00,,,0.00,weatherlink.com 1.10,2013-01-09 03:15:00,
2013-01-08 22:29:00,49.1,42.0,30.34,East,89,2.0,3.0,75,0.00,,,0.00,weatherlink.com 1.10,2013-01-09 03:29:00,
2013-01-08 22:59:00,49.1,42.0,30.34,SE,128,2.0,3.0,75,0.00,,,0.00,weatherlink.com 1.10,2013-01-09 03:59:00,
2013-01-08 23:14:00,49.2,42.0,30.34,ESE,108,2.0,3.0,75,0.00,,,0.00,weatherlink.com 1.10,2013-01-09 04:14:00,
2013-01-08 23:29:00,49.2,42.0,30.34,East,84,0.0,2.0,75,0.00,,,0.00,weatherlink.com 1.10,2013-01-09 04:29:00,
2013-01-08 23:44:00,49.3,42.0,30.34,ENE,71,3.0,4.0,75,0.00,,,0.00,weatherlink.com 1.10,2013-01-09 04:44:00,
2013-01-08 23:59:00,49.4,42.0,30.34,East,81,1.0,2.0,75,0.00,,,0.00,weatherlink.com 1.10,2013-01-09 04:59:00,